createdAt,value
2019-05-01T00:02:46.432Z,99655.16
2019-05-01T00:05:27.263Z,99658.62
2019-05-01T00:07:57.761Z,99662.91
2019-05-01T00:10:28.475Z,99670.49
2019-05-01T00:12:59.260Z,99676.23
2019-05-01T00:15:32.074Z,99673.67
2019-05-01T00:18:02.430Z,99678.71
2019-05-01T00:20:32.776Z,99680.78
2019-05-01T00:23:03.212Z,99678.28
2019-05-01T00:25:33.537Z,99676.23
2019-05-01T00:28:04.133Z,99676.99
2019-05-01T00:30:36.337Z,99669.88
2019-05-01T00:33:06.687Z,99668.66
2019-05-01T00:35:36.976Z,99670.20
2019-05-01T00:38:07.485Z,99673.39
2019-05-01T00:40:37.823Z,99670.77
2019-05-01T00:43:08.168Z,99671.23
2019-05-01T00:45:38.960Z,99669.38
2019-05-01T00:48:09.337Z,99667.50
2019-05-01T00:50:39.681Z,99673.25
2019-05-01T00:53:10.341Z,99679.72
2019-05-01T00:55:57.080Z,99672.89
2019-05-01T00:58:52.251Z,99678.13
2019-05-01T01:01:40.156Z,99680.56
2019-05-01T01:04:12.180Z,99676.06
2019-05-01T01:06:42.486Z,99673.44
2019-05-01T01:09:14.607Z,99669.42
2019-05-01T01:11:44.914Z,99675.78
2019-05-01T01:14:15.268Z,99677.09
2019-05-01T01:16:45.648Z,99684.03
2019-05-01T01:19:16.162Z,99680.51
2019-05-01T01:21:46.489Z,99683.69
2019-05-01T01:24:16.867Z,99686.31
2019-05-01T01:26:47.488Z,99677.32
2019-05-01T01:29:17.891Z,99680.83
2019-05-01T01:31:48.335Z,99684.33
2019-05-01T01:34:18.720Z,99679.75
2019-05-01T01:36:49.001Z,99685.86
2019-05-01T01:39:19.356Z,99689.39
2019-05-01T01:41:50.161Z,99687.71
2019-05-01T01:44:47.333Z,99684.95
2019-05-01T01:47:17.526Z,99686.64
2019-05-01T01:49:47.940Z,99680.70
2019-05-01T01:52:18.600Z,99679.42
2019-05-01T01:54:49.173Z,99682.38
2019-05-01T01:57:20.046Z,99679.98
2019-05-01T01:59:51.055Z,99678.34
2019-05-01T02:02:44.935Z,99672.73
2019-05-01T02:05:22.213Z,99674.31
2019-05-01T02:07:53.053Z,99668.91
2019-05-01T02:10:23.575Z,99674.03
2019-05-01T02:12:54.259Z,99673.80
2019-05-01T02:15:24.572Z,99662.89
2019-05-01T02:17:54.891Z,99663.83
2019-05-01T02:20:25.223Z,99659.46
2019-05-01T02:22:55.701Z,99655.27
2019-05-01T02:25:26.039Z,99660.74
2019-05-01T02:28:34.223Z,99655.03
2019-05-01T02:31:29.408Z,99657.39
2019-05-01T02:34:01.653Z,99661.21
2019-05-01T02:36:32.459Z,99655.17
2019-05-01T02:39:04.116Z,99656.34
2019-05-01T02:41:41.739Z,99655.17
2019-05-01T02:44:20.884Z,99661.27
2019-05-01T02:46:53.954Z,99661.74
2019-05-01T02:49:33.850Z,99659.39
2019-05-01T02:52:06.281Z,99658.50
2019-05-01T02:54:38.099Z,99664.08
2019-05-01T02:57:11.770Z,99663.03
2019-05-01T02:59:45.469Z,99659.57
2019-05-01T03:02:16.033Z,99655.44
2019-05-01T03:04:47.290Z,99650.66
2019-05-01T03:07:18.408Z,99654.66
2019-05-01T03:09:49.147Z,99652.27
2019-05-01T03:12:22.274Z,99649.26
2019-05-01T03:14:55.114Z,99643.16
2019-05-01T03:17:39.368Z,99649.16
2019-05-01T03:20:28.815Z,99653.06
2019-05-01T03:23:22.666Z,99652.16
2019-05-01T03:25:53.492Z,99644.73
2019-05-01T03:28:25.189Z,99647.91
2019-05-01T03:30:56.084Z,99653.97
2019-05-01T03:33:26.717Z,99646.30
2019-05-01T03:35:57.603Z,99651.02
2019-05-01T03:38:28.323Z,99652.08
2019-05-01T03:40:58.804Z,99657.73
2019-05-01T03:43:29.697Z,99656.80
2019-05-01T03:46:01.331Z,99658.00
2019-05-01T03:48:31.731Z,99658.75
2019-05-01T03:51:02.483Z,99663.84
2019-05-01T03:53:33.208Z,99665.31
2019-05-01T03:56:03.930Z,99663.97
2019-05-01T03:58:34.953Z,99660.58
2019-05-01T04:01:39.579Z,99661.38
2019-05-01T04:04:19.004Z,99656.55
2019-05-01T04:06:49.710Z,99652.08
2019-05-01T04:09:20.110Z,99640.40
2019-05-01T04:11:50.700Z,99640.76
2019-05-01T04:14:21.361Z,99641.46
2019-05-01T04:16:57.163Z,99648.83
2019-05-01T04:19:27.948Z,99642.63
2019-05-01T04:22:12.318Z,99641.11
2019-05-01T04:24:43.688Z,99640.50
2019-05-01T04:27:20.087Z,99627.66
2019-05-01T04:30:01.040Z,99633.18
2019-05-01T04:32:50.050Z,99636.30
2019-05-01T04:35:24.627Z,99627.06
2019-05-01T04:37:57.940Z,99628.56
2019-05-01T04:40:28.473Z,99621.30
2019-05-01T04:42:58.962Z,99619.53
2019-05-01T04:45:30.099Z,99631.05
2019-05-01T04:48:01.063Z,99626.20
2019-05-01T04:50:31.642Z,99623.30
2019-05-01T04:53:02.342Z,99624.75
2019-05-01T04:55:33.712Z,99632.13
2019-05-01T04:58:04.484Z,99625.13
2019-05-01T05:00:35.051Z,99625.71
2019-05-01T05:03:09.708Z,99616.21
2019-05-01T05:05:40.269Z,99624.13
2019-05-01T05:08:10.927Z,99623.90
2019-05-01T05:10:41.795Z,99620.91
2019-05-01T05:13:26.409Z,99620.45
2019-05-01T05:16:15.098Z,99622.00
2019-05-01T05:18:46.246Z,99623.38
2019-05-01T05:21:17.021Z,99620.64
2019-05-01T05:23:47.468Z,99619.34
2019-05-01T05:26:17.957Z,99617.16
2019-05-01T05:28:49.689Z,99618.63
2019-05-01T05:31:20.651Z,99617.09
2019-05-01T05:33:52.395Z,99616.14
2019-05-01T05:36:25.462Z,99617.77
2019-05-01T05:39:01.700Z,99621.64
2019-05-01T05:41:33.608Z,99623.55
2019-05-01T05:44:04.125Z,99616.70
2019-05-01T05:46:34.496Z,99615.95
2019-05-01T05:49:05.194Z,99617.23
2019-05-01T05:52:01.709Z,99617.45
2019-05-01T05:54:49.895Z,99611.27
2019-05-01T05:57:30.081Z,99617.50
2019-05-01T06:00:13.632Z,99612.89
2019-05-01T06:03:02.870Z,99622.64
2019-05-01T06:05:54.665Z,99615.62
2019-05-01T06:08:28.471Z,99615.41
2019-05-01T06:11:19.083Z,99616.58
2019-05-01T06:14:11.770Z,99617.11
2019-05-01T06:16:54.939Z,99621.91
2019-05-01T06:19:40.473Z,99620.86
2019-05-01T06:22:32.849Z,99623.77
2019-05-01T06:25:22.512Z,99622.22
2019-05-01T06:27:49.366Z,99623.84
2019-05-01T06:30:19.705Z,99626.55
2019-05-01T06:32:50.503Z,99628.18
2019-05-01T06:35:21.337Z,99622.77
2019-05-01T06:38:04.639Z,99627.64
2019-05-01T06:40:42.320Z,99632.81
2019-05-01T06:43:50.813Z,99626.18
2019-05-01T06:46:45.887Z,99621.20
2019-05-01T06:49:29.420Z,99618.78
2019-05-01T06:51:58.322Z,99618.02
2019-05-01T06:54:30.146Z,99620.69
2019-05-01T06:57:01.484Z,99618.34
2019-05-01T06:59:33.408Z,99624.05
2019-05-01T07:02:04.077Z,99627.60
2019-05-01T07:04:37.820Z,99628.45
2019-05-01T07:07:13.442Z,99624.03
2019-05-01T07:09:44.063Z,99634.87
2019-05-01T07:12:17.135Z,99622.55
2019-05-01T07:14:51.045Z,99628.61
2019-05-01T07:17:22.759Z,99626.73
2019-05-01T07:20:21.808Z,99629.39
2019-05-01T07:22:53.625Z,99633.80
2019-05-01T07:25:24.175Z,99637.77
2019-05-01T07:27:58.609Z,99645.03
2019-05-01T07:30:38.229Z,99639.62
2019-05-01T07:33:11.933Z,99637.05
2019-05-01T07:35:42.392Z,99628.23
2019-05-01T07:38:12.967Z,99631.18
2019-05-01T07:40:44.770Z,99635.16
2019-05-01T07:43:44.203Z,99632.27
2019-05-01T07:46:37.294Z,99633.94
2019-05-01T07:49:08.200Z,99632.09
2019-05-01T07:51:42.300Z,99635.77
2019-05-01T07:54:12.898Z,99628.33
2019-05-01T07:56:44.950Z,99618.25
2019-05-01T07:59:15.705Z,99625.02
2019-05-01T08:01:54.474Z,99617.84
2019-05-01T08:04:35.860Z,99636.99
2019-05-01T08:06:58.607Z,99622.47
2019-05-01T08:09:29.136Z,99626.98
2019-05-01T08:11:59.638Z,99616.89
2019-05-01T08:14:30.210Z,99619.54
2019-05-01T08:17:00.666Z,99618.71
2019-05-01T08:19:46.037Z,99613.52
2019-05-01T08:22:37.321Z,99605.17
2019-05-01T08:25:08.612Z,99605.58
2019-05-01T08:28:03.551Z,99608.41
2019-05-01T08:30:58.708Z,99608.10
2019-05-01T08:33:49.742Z,99596.79
2019-05-01T08:36:20.187Z,99602.52
2019-05-01T08:38:50.536Z,99589.04
2019-05-01T08:41:20.943Z,99583.20
2019-05-01T08:43:53.923Z,99591.89
2019-05-01T08:46:57.113Z,99583.51
2019-05-01T08:49:34.570Z,99583.02
2019-05-01T08:52:12.605Z,99576.35
2019-05-01T08:54:37.191Z,99566.11
2019-05-01T08:57:08.134Z,99571.71
2019-05-01T08:59:38.569Z,99580.66
2019-05-01T09:02:09.982Z,99567.97
2019-05-01T09:04:40.407Z,99567.70
2019-05-01T09:07:14.687Z,99574.72
2019-05-01T09:09:45.298Z,99555.45
2019-05-01T09:12:16.119Z,99572.23
2019-05-01T09:14:46.707Z,99553.21
2019-05-01T09:17:17.296Z,99548.30
2019-05-01T09:19:47.831Z,99546.55
2019-05-01T09:22:18.303Z,99538.80
2019-05-01T09:24:49.483Z,99556.72
2019-05-01T09:27:29.682Z,99547.77
2019-05-01T09:30:04.518Z,99533.41
2019-05-01T09:32:35.044Z,99537.84
2019-05-01T09:35:15.501Z,99552.21
2019-05-01T09:37:38.218Z,99542.23
2019-05-01T09:40:10.295Z,99540.34
2019-05-01T09:42:40.810Z,99533.90
2019-05-01T09:45:11.680Z,99533.22
2019-05-01T09:47:42.142Z,99557.86
2019-05-01T09:50:12.654Z,99547.52
2019-05-01T09:53:13.829Z,99552.79
2019-05-01T09:56:12.118Z,99564.26
2019-05-01T09:58:42.585Z,99564.96
2019-05-01T10:01:13.083Z,99560.56
2019-05-01T10:03:44.975Z,99570.96
2019-05-01T10:06:17.301Z,99573.34
2019-05-01T10:08:48.069Z,99569.20
2019-05-01T10:11:18.491Z,99578.72
2019-05-01T10:13:49.492Z,99574.53
2019-05-01T10:16:19.885Z,99573.38
2019-05-01T10:18:50.157Z,99582.63
2019-05-01T10:21:22.361Z,99586.02
2019-05-01T10:23:53.021Z,99576.48
2019-05-01T10:26:25.471Z,99590.00
2019-05-01T10:29:12.335Z,99591.34
2019-05-01T10:32:01.750Z,99591.81
2019-05-01T10:34:49.674Z,99588.05
2019-05-01T10:37:20.124Z,99583.40
2019-05-01T10:39:54.188Z,99584.35
2019-05-01T10:42:24.951Z,99578.73
2019-05-01T10:44:55.483Z,99572.72
2019-05-01T10:47:28.676Z,99578.09
2019-05-01T10:49:59.395Z,99572.75
2019-05-01T10:52:29.728Z,99573.03
2019-05-01T10:55:00.020Z,99570.34
2019-05-01T10:57:35.274Z,99566.14
2019-05-01T11:00:02.764Z,99560.19
2019-05-01T11:02:33.105Z,99564.78
2019-05-01T11:05:04.306Z,99570.84
2019-05-01T11:07:34.712Z,99560.33
2019-05-01T11:10:07.832Z,99555.22
2019-05-01T11:12:38.429Z,99561.16
2019-05-01T11:15:10.034Z,99561.96
2019-05-01T11:17:41.328Z,99550.06
2019-05-01T11:20:12.674Z,99548.90
2019-05-01T11:22:44.933Z,99536.01
2019-05-01T11:25:17.412Z,99553.16
2019-05-01T11:27:47.975Z,99548.33
2019-05-01T11:30:18.807Z,99542.41
2019-05-01T11:33:02.302Z,99537.99
2019-05-01T11:35:54.582Z,99539.77
2019-05-01T11:39:04.449Z,99549.39
2019-05-01T11:41:49.281Z,99542.84
2019-05-01T11:44:20.607Z,99539.53
2019-05-01T11:46:52.316Z,99542.45
2019-05-01T11:49:23.679Z,99540.61
2019-05-01T11:51:55.908Z,99543.67
2019-05-01T11:54:28.171Z,99532.62
2019-05-01T11:56:59.401Z,99527.50
2019-05-01T11:59:32.633Z,99523.99
2019-05-01T12:02:02.856Z,99521.11
2019-05-01T12:04:33.300Z,99515.88
2019-05-01T12:07:04.335Z,99510.52
2019-05-01T12:09:48.384Z,99517.11
2019-05-01T12:12:20.650Z,99520.97
2019-05-01T12:14:58.480Z,99516.89
2019-05-01T12:18:05.389Z,99507.80
2019-05-01T12:20:35.966Z,99510.52
2019-05-01T12:23:06.965Z,99502.52
2019-05-01T12:25:38.906Z,99510.19
2019-05-01T12:28:10.560Z,99497.87
2019-05-01T12:30:40.870Z,99495.25
2019-05-01T12:33:11.440Z,99493.41
2019-05-01T12:35:43.546Z,99493.80
2019-05-01T12:38:13.965Z,99482.97
2019-05-01T12:40:47.010Z,99478.08
2019-05-01T12:43:19.602Z,99473.41
2019-05-01T12:45:52.942Z,99474.30
2019-05-01T12:48:36.991Z,99475.45
2019-05-01T12:51:14.563Z,99473.63
2019-05-01T12:54:06.590Z,99468.33
2019-05-01T12:56:41.760Z,99461.27
2019-05-01T12:59:12.554Z,99466.28
2019-05-01T13:01:47.855Z,99468.28
2019-05-01T13:04:21.798Z,99467.81
2019-05-01T13:06:54.615Z,99457.74
2019-05-01T13:09:28.724Z,99452.61
2019-05-01T13:11:59.978Z,99452.42
2019-05-01T13:14:30.391Z,99443.64
2019-05-01T13:17:02.391Z,99447.69
2019-05-01T13:19:33.281Z,99441.17
2019-05-01T13:22:05.341Z,99449.98
2019-05-01T13:24:52.134Z,99451.58
2019-05-01T13:27:34.987Z,99448.66
2019-05-01T13:30:18.326Z,99435.17
2019-05-01T13:32:51.058Z,99434.65
2019-05-01T13:35:21.601Z,99438.75
2019-05-01T13:37:52.373Z,99434.65
2019-05-01T13:40:23.207Z,99433.27
2019-05-01T13:42:54.161Z,99429.68
2019-05-01T13:45:25.235Z,99431.38
2019-05-01T13:47:56.200Z,99419.03
2019-05-01T13:50:26.960Z,99423.86
2019-05-01T13:52:57.785Z,99430.00
2019-05-01T13:55:29.461Z,99433.17
2019-05-01T13:58:00.207Z,99423.69
2019-05-01T14:00:30.830Z,99421.90
2019-05-01T14:03:01.366Z,99419.22
2019-05-01T14:05:31.811Z,99421.59
2019-05-01T14:08:02.323Z,99421.02
2019-05-01T14:10:32.825Z,99424.34
2019-05-01T14:13:04.140Z,99416.56
2019-05-01T14:15:34.826Z,99419.16
2019-05-01T14:18:05.235Z,99417.82
2019-05-01T14:21:01.287Z,99416.07
2019-05-01T14:23:55.933Z,99416.67
2019-05-01T14:26:26.358Z,99418.03
2019-05-01T14:28:56.754Z,99415.53
2019-05-01T14:31:28.324Z,99418.64
2019-05-01T14:33:58.750Z,99423.49
2019-05-01T14:36:29.093Z,99416.60
2019-05-01T14:38:59.508Z,99414.44
2019-05-01T14:41:29.882Z,99413.60
2019-05-01T14:44:00.273Z,99407.35
2019-05-01T14:46:30.609Z,99411.48
2019-05-01T14:49:01.051Z,99409.06
2019-05-01T14:51:31.478Z,99410.00
2019-05-01T14:54:01.926Z,99404.33
2019-05-01T14:56:32.518Z,99405.69
2019-05-01T14:59:03.369Z,99407.12
2019-05-01T15:01:33.728Z,99410.55
2019-05-01T15:04:04.223Z,99401.70
2019-05-01T15:06:34.568Z,99408.19
2019-05-01T15:09:06.248Z,99402.05
2019-05-01T15:11:37.053Z,99403.93
2019-05-01T15:14:29.330Z,99397.48
2019-05-01T15:17:21.637Z,99401.43
2019-05-01T15:20:03.712Z,99397.95
2019-05-01T15:22:34.164Z,99394.45
2019-05-01T15:25:04.930Z,99394.34
2019-05-01T15:27:35.339Z,99395.08
2019-05-01T15:30:06.473Z,99403.68
2019-05-01T15:32:36.878Z,99401.75
2019-05-01T15:35:07.249Z,99399.90
2019-05-01T15:37:37.845Z,99400.50
2019-05-01T15:40:19.029Z,99401.71
2019-05-01T15:42:54.214Z,99398.48
2019-05-01T15:45:24.724Z,99400.58
2019-05-01T15:47:55.120Z,99394.86
2019-05-01T15:50:26.285Z,99395.35
2019-05-01T15:52:56.731Z,99395.69
2019-05-01T15:55:27.351Z,99393.73
2019-05-01T15:57:58.179Z,99396.48
2019-05-01T16:00:28.653Z,99403.18
2019-05-01T16:02:59.074Z,99409.73
2019-05-01T16:05:29.580Z,99412.84
2019-05-01T16:08:09.515Z,99414.86
2019-05-01T16:10:36.835Z,99411.83
2019-05-01T16:13:07.704Z,99415.91
2019-05-01T16:15:38.059Z,99427.73
2019-05-01T16:18:08.538Z,99427.69
2019-05-01T16:20:38.891Z,99431.07
2019-05-01T16:23:09.178Z,99427.20
2019-05-01T16:25:39.559Z,99427.50
2019-05-01T16:28:09.964Z,99426.94
2019-05-01T16:30:40.504Z,99432.53
2019-05-01T16:33:10.923Z,99432.84
2019-05-01T16:35:41.209Z,99433.86
2019-05-01T16:38:23.029Z,99432.75
2019-05-01T16:41:01.693Z,99448.50
2019-05-01T16:43:32.538Z,99447.65
2019-05-01T16:46:03.166Z,99452.11
2019-05-01T16:48:33.880Z,99451.50
2019-05-01T16:51:04.313Z,99455.20
2019-05-01T16:53:34.706Z,99460.86
2019-05-01T16:56:05.226Z,99457.75
2019-05-01T16:58:36.613Z,99460.12
2019-05-01T17:01:12.747Z,99467.87
2019-05-01T17:04:05.880Z,99469.45
2019-05-01T17:06:51.179Z,99475.22
2019-05-01T17:09:35.697Z,99475.42
2019-05-01T17:12:06.466Z,99473.21
2019-05-01T17:14:37.007Z,99480.21
2019-05-01T17:17:10.454Z,99482.39
2019-05-01T17:19:40.855Z,99489.05
2019-05-01T17:22:14.230Z,99486.47
2019-05-01T17:24:43.661Z,99482.68
2019-05-01T17:27:14.143Z,99484.73
2019-05-01T17:29:44.561Z,99490.65
2019-05-01T17:32:16.900Z,99492.34
2019-05-01T17:34:47.228Z,99495.79
2019-05-01T17:37:17.584Z,99501.02
2019-05-01T17:39:48.120Z,99499.39
2019-05-01T17:42:18.464Z,99499.09
2019-05-01T17:44:48.840Z,99504.38
2019-05-01T17:47:22.438Z,99507.05
2019-05-01T17:49:51.727Z,99511.88
2019-05-01T17:52:22.036Z,99516.05
2019-05-01T17:54:52.666Z,99510.42
2019-05-01T17:57:23.069Z,99514.73
2019-05-01T17:59:56.941Z,99524.86
2019-05-01T18:02:47.464Z,99528.64
2019-05-01T18:05:45.861Z,99531.81
2019-05-01T18:08:16.431Z,99538.11
2019-05-01T18:10:46.727Z,99530.70
2019-05-01T18:13:17.237Z,99533.22
2019-05-01T18:15:47.873Z,99537.81
2019-05-01T18:18:18.292Z,99545.23
2019-05-01T18:20:48.667Z,99538.33
2019-05-01T18:23:52.901Z,99544.13
2019-05-01T18:26:31.952Z,99548.58
2019-05-01T18:29:21.095Z,99550.20
2019-05-01T18:31:51.867Z,99552.37
2019-05-01T18:34:23.525Z,99559.96
2019-05-01T18:37:01.630Z,99559.78
2019-05-01T18:39:37.626Z,99558.83
2019-05-01T18:42:11.181Z,99559.34
2019-05-01T18:44:42.579Z,99561.31
2019-05-01T18:47:13.910Z,99560.31
2019-05-01T18:49:44.470Z,99561.81
2019-05-01T18:52:15.465Z,99565.44
2019-05-01T18:54:46.324Z,99566.11
2019-05-01T18:57:16.774Z,99572.05
2019-05-01T18:59:47.108Z,99567.25
2019-05-01T19:02:20.439Z,99570.88
2019-05-01T19:04:54.786Z,99570.39
2019-05-01T19:07:25.635Z,99572.19
2019-05-01T19:09:56.168Z,99569.88
2019-05-01T19:12:26.717Z,99571.88
2019-05-01T19:15:00.291Z,99574.69
2019-05-01T19:17:29.791Z,99571.89
2019-05-01T19:20:01.968Z,99571.03
2019-05-01T19:22:32.390Z,99570.22
2019-05-01T19:25:02.753Z,99569.38
2019-05-01T19:27:47.147Z,99572.69
2019-05-01T19:30:22.833Z,99571.72
2019-05-01T19:32:53.685Z,99570.23
2019-05-01T19:35:28.996Z,99579.29
2019-05-01T19:37:57.406Z,99577.66
2019-05-01T19:40:30.784Z,99574.50
2019-05-01T19:43:00.595Z,99580.93
2019-05-01T19:45:31.094Z,99581.77
2019-05-01T19:48:01.600Z,99579.80
2019-05-01T19:50:32.473Z,99579.13
2019-05-01T19:53:04.183Z,99583.06
2019-05-01T19:55:34.842Z,99583.06
2019-05-01T19:58:06.958Z,99588.33
2019-05-01T20:01:04.166Z,99591.30
2019-05-01T20:03:36.607Z,99580.53
2019-05-01T20:06:08.950Z,99592.08
2019-05-01T20:08:40.096Z,99584.97
2019-05-01T20:11:11.155Z,99587.39
2019-05-01T20:13:41.615Z,99580.29
2019-05-01T20:16:13.097Z,99593.61
2019-05-01T20:18:43.561Z,99588.44
2019-05-01T20:21:13.958Z,99584.81
2019-05-01T20:23:44.404Z,99579.19
2019-05-01T20:26:14.824Z,99583.81
2019-05-01T20:28:47.059Z,99578.87
2019-05-01T20:31:18.488Z,99580.86
2019-05-01T20:33:50.609Z,99584.45
2019-05-01T20:36:21.834Z,99579.67
2019-05-01T20:38:54.179Z,99584.45
2019-05-01T20:41:25.079Z,99585.27
2019-05-01T20:43:55.484Z,99587.73
2019-05-01T20:46:27.973Z,99591.69
2019-05-01T20:49:01.508Z,99588.89
2019-05-01T20:51:31.076Z,99592.33
2019-05-01T20:54:03.451Z,99593.28
2019-05-01T20:56:51.363Z,99601.47
2019-05-01T20:59:21.876Z,99600.31
2019-05-01T21:01:52.299Z,99606.06
2019-05-01T21:04:45.553Z,99601.94
2019-05-01T21:07:22.776Z,99596.59
2019-05-01T21:09:57.853Z,99609.47
2019-05-01T21:12:26.510Z,99610.06
2019-05-01T21:14:57.342Z,99609.89
2019-05-01T21:17:27.874Z,99611.69
2019-05-01T21:19:58.243Z,99606.47
2019-05-01T21:22:33.309Z,99614.53
2019-05-01T21:25:04.654Z,99590.25
2019-05-01T21:27:35.813Z,99613.00
2019-05-01T21:30:06.646Z,99605.83
2019-05-01T21:32:37.992Z,99608.95
2019-05-01T21:35:10.496Z,99604.16
2019-05-01T21:37:40.898Z,99606.80
2019-05-01T21:40:12.898Z,99604.47
2019-05-01T21:42:47.308Z,99602.52
2019-05-01T21:45:17.070Z,99598.30
2019-05-01T21:47:47.459Z,99597.41
2019-05-01T21:50:22.824Z,99586.37
2019-05-01T21:52:50.126Z,99582.56
2019-05-01T21:55:20.467Z,99575.50
2019-05-01T21:57:51.274Z,99576.66
2019-05-01T22:00:24.891Z,99575.34
2019-05-01T22:02:54.250Z,99572.19
2019-05-01T22:05:24.624Z,99568.25
2019-05-01T22:07:58.746Z,99569.25
2019-05-01T22:10:28.445Z,99569.88
2019-05-01T22:12:58.880Z,99565.09
2019-05-01T22:15:41.957Z,99558.45
2019-05-01T22:18:20.469Z,99573.73
2019-05-01T22:20:56.483Z,99571.26
2019-05-01T22:23:28.672Z,99569.30
2019-05-01T22:26:00.732Z,99566.16
2019-05-01T22:28:37.224Z,99569.94
2019-05-01T22:31:32.514Z,99567.63
2019-05-01T22:34:11.546Z,99575.34
2019-05-01T22:36:42.041Z,99570.52
2019-05-01T22:39:12.844Z,99567.39
2019-05-01T22:41:43.284Z,99570.08
2019-05-01T22:44:18.041Z,99564.02
2019-05-01T22:46:45.868Z,99555.75
2019-05-01T22:49:16.181Z,99562.11
2019-05-01T22:51:46.544Z,99557.02
2019-05-01T22:54:16.972Z,99554.38
2019-05-01T22:56:47.323Z,99547.75
2019-05-01T23:02:24.251Z,99541.11
2019-05-01T23:04:54.361Z,99538.30
2019-05-01T23:07:24.892Z,99532.89
2019-05-01T23:09:59.335Z,99532.05
2019-05-01T23:12:27.515Z,99537.09
2019-05-01T23:14:58.055Z,99537.04
2019-05-01T23:17:39.525Z,99532.09
2019-05-01T23:20:10.184Z,99539.92
2019-05-01T23:22:40.502Z,99546.59
2019-05-01T23:25:11.111Z,99548.44
2019-05-01T23:27:41.430Z,99558.81
2019-05-01T23:30:13.470Z,99564.70
2019-05-01T23:32:44.082Z,99577.72
2019-05-01T23:35:15.100Z,99585.30
2019-05-01T23:37:45.451Z,99598.02
2019-05-01T23:40:17.024Z,99612.16
2019-05-01T23:42:52.459Z,99616.75
2019-05-01T23:45:19.513Z,99623.86
2019-05-01T23:47:49.971Z,99625.50
2019-05-01T23:50:20.324Z,99624.25
2019-05-01T23:52:50.761Z,99630.25
2019-05-01T23:55:21.097Z,99634.17
2019-05-01T23:57:51.552Z,99639.58
